Standale, Michigan
Current Conditions -  °F | °C
As of 3:53 AM on Thursday 18 Dec 2014 (Local Time) from KGRR Reporting Station
Overcast Overcast  
Wind Chill: 22°   Ceiling: 2800
Heat Index: 30°   Visibility: 10mi
Dew Point: 24°   Wind: 9mph
Humidity: 79%   Direction: 270°W
Pressure: 30.21"   Gusts: NA
Location:  42.9769°N, 85.7689°W
Report Text: KGRR 180853Z AUTO 27008KT 10SM OVC028 M01/M04 A3021 RMK AO2 SLP239 T10111044 58002
Loading
Personal Weather Stations






























Interactive Weather Map New forecast layout! Learn more

10-Day Weather Forecast

Advertisements
Track Severe Weather on mobile